createdAt,value
2023-03-11T00:00:20.075Z,97328.22
2023-03-11T00:00:51.927Z,97323.91
2023-03-11T00:01:23.666Z,97330.88
2023-03-11T00:01:55.786Z,97323.09
2023-03-11T00:02:27.561Z,97328.38
2023-03-11T00:03:01.681Z,97327.41
2023-03-11T00:03:33.485Z,97327.53
2023-03-11T00:04:05.322Z,97323.34
2023-03-11T00:04:37.106Z,97327.22
2023-03-11T00:05:09.991Z,97330.94
2023-03-11T00:05:44.550Z,97326.88
2023-03-11T00:06:16.736Z,97325.84
2023-03-11T00:06:48.506Z,97331.41
2023-03-11T00:07:20.363Z,97333.13
2023-03-11T00:07:52.540Z,97328.69
2023-03-11T00:08:25.661Z,97327.84
2023-03-11T00:08:57.497Z,97334.44
2023-03-11T00:09:29.384Z,97337.78
2023-03-11T00:10:01.158Z,97334.06
2023-03-11T00:10:38.946Z,97340.06
2023-03-11T00:11:10.684Z,97340.06
2023-03-11T00:11:42.383Z,97347.06
2023-03-11T00:12:15.361Z,97336.47
2023-03-11T00:12:47.120Z,97338.53
2023-03-11T00:13:19.008Z,97343.81
2023-03-11T00:13:50.765Z,97344.66
2023-03-11T00:14:22.759Z,97344.66
2023-03-11T00:14:54.545Z,97339.59
2023-03-11T00:15:28.017Z,97340.91
2023-03-11T00:16:01.100Z,97338.63
2023-03-11T00:16:32.878Z,97333.03
2023-03-11T00:17:04.743Z,97331.06
2023-03-11T00:17:36.586Z,97335.66
2023-03-11T00:18:08.591Z,97338.16
2023-03-11T00:18:40.416Z,97333.72
2023-03-11T00:19:12.195Z,97333.72
2023-03-11T00:19:43.898Z,97335.09
2023-03-11T00:20:20.417Z,97337.72
2023-03-11T00:20:52.813Z,97336.50
2023-03-11T00:21:24.550Z,97338.16
2023-03-11T00:21:56.700Z,97337.22
2023-03-11T00:22:28.459Z,97327.84
2023-03-11T00:23:01.667Z,97336.50
2023-03-11T00:23:35.644Z,97331.06
2023-03-11T00:24:07.620Z,97326.88
2023-03-11T00:24:39.335Z,97329.25
2023-03-11T00:25:12.700Z,97334.56
2023-03-11T00:25:46.186Z,97325.78
2023-03-11T00:26:18.085Z,97338.06
2023-03-11T00:26:49.853Z,97338.91
2023-03-11T00:27:21.621Z,97338.31
2023-03-11T00:27:54.083Z,97339.16
2023-03-11T00:28:26.914Z,97327.00
2023-03-11T00:28:58.641Z,97336.50
2023-03-11T00:29:30.377Z,97337.47
2023-03-11T00:30:02.120Z,97324.91
2023-03-11T00:30:34.185Z,97332.88
2023-03-11T00:31:06.170Z,97328.31
2023-03-11T00:31:38.013Z,97323.97
2023-03-11T00:32:09.764Z,97325.78
2023-03-11T00:32:41.830Z,97324.59
2023-03-11T00:33:16.414Z,97317.19
2023-03-11T00:33:48.544Z,97324.25
2023-03-11T00:34:20.234Z,97319.91
2023-03-11T00:34:51.957Z,97318.88
2023-03-11T00:35:27.213Z,97315.38
2023-03-11T00:35:58.980Z,97316.91
2023-03-11T00:36:33.936Z,97323.06
2023-03-11T00:37:05.721Z,97321.50
2023-03-11T00:37:37.414Z,97329.31
2023-03-11T00:38:13.902Z,97324.16
2023-03-11T00:38:45.708Z,97321.97
2023-03-11T00:39:17.492Z,97328.97
2023-03-11T00:39:49.223Z,97325.00
2023-03-11T00:40:22.292Z,97321.75
2023-03-11T00:40:54.165Z,97328.75
2023-03-11T00:41:26.089Z,97319.09
2023-03-11T00:41:57.830Z,97318.53
2023-03-11T00:42:29.681Z,97321.16
2023-03-11T00:43:01.650Z,97330.69
2023-03-11T00:43:33.691Z,97323.44
2023-03-11T00:44:05.422Z,97327.91
2023-03-11T00:44:37.112Z,97327.91
2023-03-11T00:45:09.221Z,97324.66
2023-03-11T00:45:41.273Z,97326.63
2023-03-11T00:46:13.229Z,97324.91
2023-03-11T00:46:45.021Z,97323.38
2023-03-11T00:47:17.432Z,97330.59
2023-03-11T00:47:49.247Z,97326.28
2023-03-11T00:48:20.965Z,97332.38
2023-03-11T00:48:52.867Z,97326.28
2023-03-11T00:49:24.694Z,97324.44
2023-03-11T00:49:56.416Z,97325.44
2023-03-11T00:50:33.919Z,97327.25
2023-03-11T00:51:07.615Z,97324.00
2023-03-11T00:51:39.426Z,97331.69
2023-03-11T00:52:11.160Z,97333.38
2023-03-11T00:52:42.857Z,97330.00
2023-03-11T00:53:14.859Z,97334.59
2023-03-11T00:53:46.557Z,97331.09
2023-03-11T00:54:18.587Z,97333.59
2023-03-11T00:54:50.360Z,97335.28
2023-03-11T00:55:25.527Z,97338.19
2023-03-11T00:55:57.360Z,97332.44
2023-03-11T00:56:29.176Z,97339.06
2023-03-11T00:57:01.045Z,97333.19
2023-03-11T00:57:32.793Z,97339.81
2023-03-11T00:58:06.404Z,97339.22
2023-03-11T00:58:38.657Z,97335.13
2023-03-11T00:59:10.411Z,97344.06
2023-03-11T00:59:42.140Z,97337.06
2023-03-11T01:00:16.121Z,97339.81
2023-03-11T01:00:47.930Z,97338.03
2023-03-11T01:01:21.328Z,97341.63
2023-03-11T01:01:53.092Z,97342.63
2023-03-11T01:02:24.914Z,97338.16
2023-03-11T01:02:57.458Z,97340.94
2023-03-11T01:03:29.365Z,97334.78
2023-03-11T01:04:01.166Z,97336.47
2023-03-11T01:04:32.939Z,97343.47
2023-03-11T01:05:05.942Z,97336.34
2023-03-11T01:05:37.759Z,97334.69
2023-03-11T01:06:09.597Z,97336.34
2023-03-11T01:06:45.715Z,97337.31
2023-03-11T01:07:17.647Z,97329.38
2023-03-11T01:07:49.928Z,97329.38
2023-03-11T01:08:21.658Z,97328.78
2023-03-11T01:08:53.453Z,97326.38
2023-03-11T01:09:25.157Z,97317.03
2023-03-11T01:09:56.916Z,97323.00
2023-03-11T01:10:30.705Z,97318.81
2023-03-11T01:11:04.093Z,97314.47
2023-03-11T01:11:35.907Z,97312.56
2023-03-11T01:12:07.649Z,97313.78
2023-03-11T01:12:39.616Z,97312.22
2023-03-11T01:13:11.712Z,97321.59
2023-03-11T01:13:43.463Z,97319.78
2023-03-11T01:14:15.234Z,97316.19
2023-03-11T01:14:46.972Z,97310.06
2023-03-11T01:15:31.751Z,97316.19
2023-03-11T01:16:03.706Z,97316.06
2023-03-11T01:16:35.596Z,97313.06
2023-03-11T01:17:07.306Z,97309.94
2023-03-11T01:17:39.044Z,97325.78
2023-03-11T01:18:10.849Z,97322.44
2023-03-11T01:18:42.675Z,97319.69
2023-03-11T01:19:15.391Z,97324.00
2023-03-11T01:19:47.087Z,97323.75
2023-03-11T01:20:19.090Z,97324.47
2023-03-11T01:20:50.965Z,97326.38
2023-03-11T01:21:22.663Z,97325.56
2023-03-11T01:21:54.341Z,97331.69
2023-03-11T01:22:26.422Z,97321.94
2023-03-11T01:22:58.155Z,97321.09
2023-03-11T01:23:30.177Z,97322.09
2023-03-11T01:24:01.940Z,97325.31
2023-03-11T01:24:33.819Z,97323.63
2023-03-11T01:25:05.927Z,97322.09
2023-03-11T01:25:37.692Z,97315.22
2023-03-11T01:26:09.394Z,97315.34
2023-03-11T01:26:41.165Z,97322.94
2023-03-11T01:27:12.949Z,97325.31
2023-03-11T01:27:44.979Z,97319.09
2023-03-11T01:28:17.025Z,97310.31
2023-03-11T01:28:48.830Z,97317.41
2023-03-11T01:29:20.573Z,97322.94
2023-03-11T01:29:52.335Z,97313.16
2023-03-11T01:30:25.555Z,97314.59
2023-03-11T01:30:57.345Z,97320.88
2023-03-11T01:31:29.169Z,97315.44
2023-03-11T01:32:00.953Z,97308.50
2023-03-11T01:32:32.720Z,97313.91
2023-03-11T01:33:05.158Z,97314.16
2023-03-11T01:33:36.988Z,97309.81
2023-03-11T01:34:08.730Z,97315.94
2023-03-11T01:34:40.485Z,97314.16
2023-03-11T01:35:15.359Z,97303.09
2023-03-11T01:35:47.290Z,97315.34
2023-03-11T01:36:19.053Z,97309.56
2023-03-11T01:36:50.753Z,97304.78
2023-03-11T01:37:22.579Z,97311.88
2023-03-11T01:37:55.229Z,97308.38
2023-03-11T01:38:27.026Z,97309.22
2023-03-11T01:38:58.942Z,97300.19
2023-03-11T01:39:31.125Z,97304.78
2023-03-11T01:40:03.242Z,97304.91
2023-03-11T01:40:41.880Z,97308.03
2023-03-11T01:41:13.583Z,97306.34
2023-03-11T01:41:45.361Z,97307.53
2023-03-11T01:42:17.070Z,97303.19
2023-03-11T01:42:48.867Z,97301.19
2023-03-11T01:43:41.436Z,97295.75
2023-03-11T01:44:13.750Z,97299.16
2023-03-11T01:44:45.518Z,97297.22
2023-03-11T01:45:40.463Z,97302.38
2023-03-11T01:46:53.385Z,97293.13
2023-03-11T01:47:34.571Z,97292.41
2023-03-11T01:48:09.211Z,97295.16
2023-03-11T01:48:45.188Z,97293.47
2023-03-11T01:49:16.916Z,97290.97
2023-03-11T01:49:49.130Z,97295.28
2023-03-11T01:50:21.374Z,97299.16
2023-03-11T01:50:53.609Z,97293.84
2023-03-11T01:51:33.417Z,97295.75
2023-03-11T01:52:08.171Z,97299.16
2023-03-11T01:52:42.555Z,97296.50
2023-03-11T01:53:16.701Z,97292.41
2023-03-11T01:53:48.813Z,97299.34
2023-03-11T01:54:25.795Z,97303.69
2023-03-11T01:54:57.572Z,97298.06
2023-03-11T01:55:31.240Z,97298.16
2023-03-11T01:56:05.171Z,97298.66
2023-03-11T01:56:38.909Z,97301.53
2023-03-11T01:57:13.732Z,97305.13
2023-03-11T01:57:47.874Z,97303.00
2023-03-11T01:58:25.669Z,97301.16
2023-03-11T01:58:58.673Z,97299.50
2023-03-11T01:59:36.552Z,97308.63
2023-03-11T02:00:12.603Z,97310.41
2023-03-11T02:00:44.730Z,97304.19
2023-03-11T02:01:16.993Z,97318.44
2023-03-11T02:01:58.858Z,97317.97
2023-03-11T02:02:42.144Z,97319.41
2023-03-11T02:03:43.341Z,97327.56
2023-03-11T02:04:16.242Z,97326.84
2023-03-11T02:04:49.860Z,97333.91
2023-03-11T02:05:23.557Z,97323.69
2023-03-11T02:05:57.682Z,97331.63
2023-03-11T02:06:31.915Z,97342.09
2023-03-11T02:07:05.102Z,97341.25
2023-03-11T02:07:39.978Z,97334.50
2023-03-11T02:08:11.733Z,97339.91
2023-03-11T02:08:44.642Z,97340.72
2023-03-11T02:09:16.356Z,97333.66
2023-03-11T02:09:48.134Z,97344.13
2023-03-11T02:10:20.639Z,97343.28
2023-03-11T02:10:54.442Z,97347.94
2023-03-11T02:11:30.709Z,97347.34
2023-03-11T02:12:04.279Z,97348.53
2023-03-11T02:12:38.022Z,97345.88
2023-03-11T02:13:10.764Z,97347.56
2023-03-11T02:13:45.333Z,97352.72
2023-03-11T02:14:17.909Z,97358.84
2023-03-11T02:14:54.684Z,97351.53
2023-03-11T02:15:26.982Z,97358.50
2023-03-11T02:16:00.756Z,97355.97
2023-03-11T02:16:33.267Z,97362.72
2023-03-11T02:17:05.503Z,97355.63
2023-03-11T02:17:39.950Z,97358.88
2023-03-11T02:18:18.680Z,97351.81
2023-03-11T02:18:50.558Z,97357.94
2023-03-11T02:19:46.419Z,97356.25
2023-03-11T02:20:37.169Z,97357.00
2023-03-11T02:21:29.974Z,97352.75
2023-03-11T02:22:03.116Z,97352.88
2023-03-11T02:22:35.221Z,97351.19
2023-03-11T02:23:07.134Z,97349.63
2023-03-11T02:24:16.398Z,97358.03
2023-03-11T02:25:13.660Z,97354.91
2023-03-11T02:26:01.577Z,97351.31
2023-03-11T02:27:01.809Z,97352.88
2023-03-11T02:27:38.755Z,97354.69
2023-03-11T02:28:14.976Z,97354.69
2023-03-11T02:28:49.300Z,97350.59
2023-03-11T02:29:23.390Z,97357.81
2023-03-11T02:29:56.919Z,97351.66
2023-03-11T02:30:31.159Z,97353.47
2023-03-11T02:31:03.005Z,97352.53
2023-03-11T02:31:38.582Z,97347.09
2023-03-11T02:32:11.547Z,97341.72
2023-03-11T02:32:48.559Z,97347.72
2023-03-11T02:33:20.483Z,97341.47
2023-03-11T02:33:54.793Z,97345.56
2023-03-11T02:34:29.468Z,97348.09
2023-03-11T02:35:01.201Z,97343.97
2023-03-11T02:35:33.012Z,97345.56
2023-03-11T02:36:05.259Z,97347.25
2023-03-11T02:36:42.007Z,97344.50
2023-03-11T02:37:16.919Z,97342.59
2023-03-11T02:37:51.750Z,97353.63
2023-03-11T02:38:24.333Z,97348.47
2023-03-11T02:38:56.091Z,97348.94
2023-03-11T02:39:33.742Z,97354.97
2023-03-11T02:40:23.244Z,97360.03
2023-03-11T02:41:02.574Z,97354.63
2023-03-11T02:41:40.251Z,97356.44
2023-03-11T02:42:26.059Z,97357.03
2023-03-11T02:43:01.749Z,97350.56
2023-03-11T02:43:43.945Z,97356.28
2023-03-11T02:44:16.635Z,97354.41
2023-03-11T02:45:01.400Z,97354.16
2023-03-11T02:45:34.477Z,97358.59
2023-03-11T02:46:10.252Z,97358.59
2023-03-11T02:46:43.153Z,97360.16
2023-03-11T02:47:17.062Z,97353.53
2023-03-11T02:47:49.907Z,97358.59
2023-03-11T02:48:22.781Z,97358.34
2023-03-11T02:48:56.265Z,97362.56
2023-03-11T02:49:28.456Z,97364.13
2023-03-11T02:50:00.234Z,97361.59
2023-03-11T02:50:34.592Z,97358.94
2023-03-11T02:51:06.509Z,97369.28
2023-03-11T02:51:38.262Z,97369.41
2023-03-11T02:52:10.020Z,97371.22
2023-03-11T02:52:41.799Z,97371.22
2023-03-11T02:53:14.361Z,97367.13
2023-03-11T02:53:53.114Z,97374.09
2023-03-11T02:54:24.805Z,97375.91
2023-03-11T02:54:56.584Z,97372.41
2023-03-11T02:55:28.278Z,97371.69
2023-03-11T02:56:00.048Z,97370.25
2023-03-11T02:56:32.368Z,97365.91
2023-03-11T02:57:04.383Z,97369.41
2023-03-11T02:57:36.128Z,97363.28
2023-03-11T02:58:07.962Z,97361.56
2023-03-11T02:58:39.684Z,97368.31
2023-03-11T02:59:11.455Z,97372.41
2023-03-11T02:59:43.230Z,97368.81
2023-03-11T03:00:17.449Z,97362.78
2023-03-11T03:00:49.326Z,97363.63
2023-03-11T03:01:21.491Z,97364.47
2023-03-11T03:01:53.190Z,97358.84
2023-03-11T03:02:24.985Z,97350.78
2023-03-11T03:02:56.898Z,97358.94
2023-03-11T03:03:28.673Z,97356.19
2023-03-11T03:04:00.560Z,97359.09
2023-03-11T03:04:32.388Z,97358.72
2023-03-11T03:05:04.261Z,97360.53
2023-03-11T03:05:36.020Z,97356.44
2023-03-11T03:06:07.854Z,97361.50
2023-03-11T03:06:39.583Z,97369.53
2023-03-11T03:07:11.666Z,97368.69
2023-03-11T03:07:43.404Z,97371.94
2023-03-11T03:08:15.421Z,97376.16
2023-03-11T03:08:47.211Z,97377.22
2023-03-11T03:09:18.909Z,97381.78
2023-03-11T03:09:50.731Z,97381.44
2023-03-11T03:10:23.232Z,97380.34
2023-03-11T03:10:54.997Z,97380.97
2023-03-11T03:11:26.787Z,97365.94
2023-03-11T03:11:58.524Z,97376.16
2023-03-11T03:12:30.465Z,97368.94
2023-03-11T03:13:02.223Z,97372.44
2023-03-11T03:13:34.171Z,97378.56
2023-03-11T03:14:05.873Z,97371.59
2023-03-11T03:14:37.554Z,97375.81
2023-03-11T03:15:10.657Z,97367.88
2023-03-11T03:15:42.368Z,97367.25
2023-03-11T03:16:14.174Z,97368.22
2023-03-11T03:16:46.046Z,97369.19
2023-03-11T03:17:17.901Z,97363.19
2023-03-11T03:17:51.647Z,97367.38
2023-03-11T03:18:23.534Z,97357.75
2023-03-11T03:18:55.256Z,97363.03
2023-03-11T03:19:27.032Z,97371.13
2023-03-11T03:19:58.792Z,97372.78
2023-03-11T03:20:30.830Z,97373.50
2023-03-11T03:21:02.603Z,97378.81
2023-03-11T03:21:34.372Z,97370.88
2023-03-11T03:22:06.532Z,97370.63
2023-03-11T03:22:39.520Z,97378.22
2023-03-11T03:23:11.237Z,97376.41
2023-03-11T03:23:42.937Z,97381.47
2023-03-11T03:24:14.747Z,97376.88
2023-03-11T03:24:46.617Z,97377.88
2023-03-11T03:25:18.845Z,97371.34
2023-03-11T03:25:50.532Z,97374.97
2023-03-11T03:26:22.252Z,97375.81
2023-03-11T03:26:54.023Z,97377.63
2023-03-11T03:27:25.711Z,97378.22
2023-03-11T03:27:57.474Z,97378.94
2023-03-11T03:28:29.188Z,97385.91
2023-03-11T03:29:00.873Z,97377.03
2023-03-11T03:29:32.664Z,97377.25
2023-03-11T03:30:05.897Z,97383.50
2023-03-11T03:30:38.481Z,97385.91
2023-03-11T03:31:11.675Z,97386.41
2023-03-11T03:31:43.569Z,97383.88
2023-03-11T03:32:15.354Z,97381.81
2023-03-11T03:32:47.137Z,97387.22
2023-03-11T03:33:18.878Z,97392.41
2023-03-11T03:33:50.566Z,97390.72
2023-03-11T03:34:22.283Z,97390.00
2023-03-11T03:34:59.015Z,97393.00
2023-03-11T03:35:31.208Z,97395.16
2023-03-11T03:36:07.836Z,97396.22
2023-03-11T03:36:39.657Z,97397.19
2023-03-11T03:37:11.356Z,97406.09
2023-03-11T03:37:43.084Z,97401.16
2023-03-11T03:38:15.088Z,97402.84
2023-03-11T03:38:46.868Z,97396.59
2023-03-11T03:39:19.989Z,97410.41
2023-03-11T03:39:51.806Z,97412.84
2023-03-11T03:40:23.647Z,97403.22
2023-03-11T03:40:55.382Z,97399.72
2023-03-11T03:41:27.851Z,97406.69
2023-03-11T03:41:59.666Z,97410.06
2023-03-11T03:42:31.879Z,97404.66
2023-03-11T03:43:04.377Z,97400.94
2023-03-11T03:43:36.168Z,97403.69
2023-03-11T03:44:07.866Z,97404.06
2023-03-11T03:44:39.572Z,97397.34
2023-03-11T03:45:11.620Z,97398.06
2023-03-11T03:45:43.374Z,97398.91
2023-03-11T03:46:15.552Z,97396.25
2023-03-11T03:46:47.413Z,97406.25
2023-03-11T03:47:20.542Z,97396.16
2023-03-11T03:47:52.349Z,97397.69
2023-03-11T03:48:24.312Z,97393.00
2023-03-11T03:48:56.225Z,97392.06
2023-03-11T03:49:27.966Z,97394.56
2023-03-11T03:49:59.670Z,97393.59
2023-03-11T03:50:31.466Z,97402.03
2023-03-11T03:51:05.659Z,97388.81
2023-03-11T03:51:37.355Z,97392.88
2023-03-11T03:52:10.493Z,97382.16
2023-03-11T03:52:42.299Z,97389.03
2023-03-11T03:53:14.198Z,97386.25
2023-03-11T03:53:46.754Z,97388.19
2023-03-11T03:54:18.507Z,97382.41
2023-03-11T03:54:50.860Z,97388.19
2023-03-11T03:55:22.611Z,97393.13
2023-03-11T03:55:54.785Z,97389.00
2023-03-11T03:56:26.661Z,97385.84
2023-03-11T03:56:58.943Z,97384.38
2023-03-11T03:57:30.691Z,97382.81
2023-03-11T03:58:02.398Z,97386.06
2023-03-11T03:58:34.275Z,97378.94
2023-03-11T03:59:06.011Z,97390.84
2023-03-11T03:59:37.822Z,97384.56
2023-03-11T04:00:10.433Z,97394.00
2023-03-11T04:00:42.304Z,97387.59
2023-03-11T04:01:14.408Z,97394.47
2023-03-11T04:01:46.149Z,97393.63
2023-03-11T04:02:17.897Z,97396.72
2023-03-11T04:02:49.586Z,97396.59
2023-03-11T04:03:21.283Z,97393.69
2023-03-11T04:03:53.142Z,97391.88
2023-03-11T04:04:24.914Z,97392.47
2023-03-11T04:04:56.858Z,97390.53
2023-03-11T04:05:28.591Z,97387.75
2023-03-11T04:06:23.415Z,97391.00
2023-03-11T04:06:55.214Z,97389.19
2023-03-11T04:07:26.906Z,97386.53
2023-03-11T04:07:58.751Z,97384.59
2023-03-11T04:08:30.537Z,97380.97
2023-03-11T04:09:02.271Z,97382.78
2023-03-11T04:09:34.105Z,97378.34
2023-03-11T04:10:06.552Z,97378.34
2023-03-11T04:10:38.261Z,97388.94
2023-03-11T04:11:10.107Z,97383.63
2023-03-11T04:11:41.801Z,97386.03
2023-03-11T04:12:15.636Z,97385.06
2023-03-11T04:12:47.373Z,97386.88
2023-03-11T04:13:19.121Z,97388.56
2023-03-11T04:13:50.906Z,97394.81
2023-03-11T04:14:22.677Z,97394.81
2023-03-11T04:14:54.459Z,97391.47
2023-03-11T04:15:26.284Z,97395.78
2023-03-11T04:15:58.091Z,97397.47
2023-03-11T04:16:30.098Z,97393.97
2023-03-11T04:17:01.945Z,97395.78
2023-03-11T04:17:33.697Z,97397.84
2023-03-11T04:18:05.727Z,97403.72
2023-03-11T04:18:37.456Z,97399.28
2023-03-11T04:19:09.879Z,97401.94
2023-03-11T04:19:41.656Z,97388.69
2023-03-11T04:20:13.593Z,97394.97
2023-03-11T04:20:46.584Z,97385.59
2023-03-11T04:21:18.465Z,97392.53
2023-03-11T04:21:52.021Z,97397.84
2023-03-11T04:22:23.793Z,97391.00
2023-03-11T04:22:55.478Z,97393.53
2023-03-11T04:23:27.166Z,97401.50
2023-03-11T04:23:59.857Z,97398.00
2023-03-11T04:24:31.903Z,97390.88
2023-03-11T04:25:03.871Z,97390.31
2023-03-11T04:25:35.694Z,97399.69
2023-03-11T04:26:07.449Z,97397.84
2023-03-11T04:26:39.532Z,97390.03
2023-03-11T04:27:11.265Z,97399.53
2023-03-11T04:27:46.093Z,97394.22
2023-03-11T04:28:17.911Z,97398.94
2023-03-11T04:28:49.929Z,97400.63
2023-03-11T04:29:21.680Z,97396.31
2023-03-11T04:29:53.477Z,97405.09
2023-03-11T04:30:25.424Z,97401.59
2023-03-11T04:30:57.368Z,97404.25
2023-03-11T04:31:29.239Z,97393.91
2023-03-11T04:32:00.979Z,97400.75
2023-03-11T04:32:32.782Z,97408.69
2023-03-11T04:33:04.511Z,97410.41
2023-03-11T04:33:36.257Z,97403.41
2023-03-11T04:34:08.102Z,97406.91
2023-03-11T04:34:39.889Z,97400.06
2023-03-11T04:35:11.678Z,97411.34
2023-03-11T04:35:43.526Z,97408.84
2023-03-11T04:36:15.336Z,97407.16
2023-03-11T04:36:47.074Z,97410.66
2023-03-11T04:37:18.880Z,97398.09
2023-03-11T04:37:50.619Z,97407.28
2023-03-11T04:38:22.583Z,97406.31
2023-03-11T04:38:57.036Z,97407.84
2023-03-11T04:39:28.860Z,97408.69
2023-03-11T04:40:00.606Z,97405.94
2023-03-11T04:40:32.645Z,97405.22
2023-03-11T04:41:06.391Z,97405.09
2023-03-11T04:41:38.182Z,97405.78
2023-03-11T04:42:09.926Z,97398.94
2023-03-11T04:42:41.888Z,97401.50
2023-03-11T04:43:13.615Z,97394.88
2023-03-11T04:43:45.438Z,97400.06
2023-03-11T04:44:17.171Z,97406.31
2023-03-11T04:44:49.035Z,97401.97
2023-03-11T04:45:20.896Z,97405.47
2023-03-11T04:45:52.792Z,97409.91
2023-03-11T04:46:24.611Z,97414.53
2023-03-11T04:46:57.280Z,97419.81
2023-03-11T04:47:29.074Z,97418.00
2023-03-11T04:48:00.805Z,97420.78
2023-03-11T04:48:32.568Z,97417.28
2023-03-11T04:49:04.289Z,97424.28
2023-03-11T04:49:36.186Z,97428.88
2023-03-11T04:50:08.082Z,97430.41
2023-03-11T04:50:39.853Z,97424.28
2023-03-11T04:51:11.613Z,97432.47
2023-03-11T04:51:43.354Z,97431.16
2023-03-11T04:52:15.256Z,97441.38
2023-03-11T04:52:47.359Z,97446.09
2023-03-11T04:53:19.347Z,97441.50
2023-03-11T04:53:51.116Z,97445.41
2023-03-11T04:54:22.805Z,97454.31
2023-03-11T04:54:54.531Z,97451.16
2023-03-11T04:55:26.342Z,97450.09
2023-03-11T04:55:58.067Z,97452.28
2023-03-11T04:56:29.969Z,97448.03
2023-03-11T04:57:01.875Z,97446.09
2023-03-11T04:57:33.669Z,97447.31
2023-03-11T04:58:05.466Z,97447.31
2023-03-11T04:58:37.442Z,97446.59
2023-03-11T04:59:09.189Z,97450.22
2023-03-11T04:59:40.955Z,97444.91
2023-03-11T05:00:13.985Z,97448.50
2023-03-11T05:00:45.987Z,97446.72
2023-03-11T05:01:17.848Z,97449.47
2023-03-11T05:01:49.729Z,97449.34
2023-03-11T05:02:21.519Z,97442.63
2023-03-11T05:02:53.691Z,97441.66
2023-03-11T05:03:25.856Z,97436.63
2023-03-11T05:03:57.688Z,97443.00
2023-03-11T05:04:29.496Z,97446.38
2023-03-11T05:05:01.734Z,97451.66
2023-03-11T05:05:33.548Z,97455.03
2023-03-11T05:06:05.733Z,97451.78
2023-03-11T05:06:37.468Z,97458.88
2023-03-11T05:07:09.225Z,97453.72
2023-03-11T05:07:40.951Z,97453.84
2023-03-11T05:08:12.665Z,97451.19
2023-03-11T05:08:44.388Z,97458.28
2023-03-11T05:09:16.098Z,97449.63
2023-03-11T05:09:47.836Z,97453.00
2023-03-11T05:10:22.524Z,97457.56
2023-03-11T05:10:54.478Z,97453.50
2023-03-11T05:11:26.276Z,97463.72
2023-03-11T05:11:58.024Z,97456.84
2023-03-11T05:12:29.741Z,97455.19
2023-03-11T05:13:01.405Z,97453.13
2023-03-11T05:13:33.235Z,97461.34
2023-03-11T05:14:04.975Z,97471.19
2023-03-11T05:14:36.822Z,97466.00
2023-03-11T05:15:08.790Z,97463.50
2023-03-11T05:15:40.642Z,97458.91
2023-03-11T05:16:12.444Z,97463.84
2023-03-11T05:16:44.237Z,97462.91
2023-03-11T05:17:18.664Z,97463.00
2023-03-11T05:17:50.452Z,97462.91
2023-03-11T05:18:22.307Z,97465.78
2023-03-11T05:18:54.042Z,97460.97
2023-03-11T05:19:31.785Z,97462.16
2023-03-11T05:20:06.697Z,97467.94
2023-03-11T05:20:38.689Z,97464.94
2023-03-11T05:21:10.399Z,97473.09
2023-03-11T05:21:42.094Z,97475.97
2023-03-11T05:22:13.828Z,97472.59
2023-03-11T05:22:45.542Z,97480.44
2023-03-11T05:23:17.300Z,97480.53
2023-03-11T05:23:49.754Z,97482.94
2023-03-11T05:24:21.752Z,97481.03
2023-03-11T05:24:53.549Z,97500.34
2023-03-11T05:25:25.705Z,97489.31
2023-03-11T05:25:57.468Z,97496.50
2023-03-11T05:26:29.187Z,97501.69
2023-03-11T05:27:02.083Z,97500.00
2023-03-11T05:27:33.799Z,97510.19
2023-03-11T05:28:05.805Z,97502.84
2023-03-11T05:28:37.523Z,97504.25
2023-03-11T05:29:09.445Z,97520.13
2023-03-11T05:29:41.470Z,97504.50
2023-03-11T05:30:13.378Z,97511.69
2023-03-11T05:30:45.180Z,97521.50
2023-03-11T05:31:16.992Z,97518.25
2023-03-11T05:31:48.723Z,97514.69
2023-03-11T05:32:20.951Z,97524.53
2023-03-11T05:32:52.790Z,97523.81
2023-03-11T05:33:24.598Z,97519.75
2023-03-11T05:33:56.307Z,97525.25
2023-03-11T05:34:28.093Z,97517.94
2023-03-11T05:34:59.972Z,97514.81
2023-03-11T05:35:31.692Z,97518.34
2023-03-11T05:36:05.850Z,97525.00
2023-03-11T05:36:37.626Z,97522.25
2023-03-11T05:37:09.402Z,97512.38
2023-03-11T05:37:41.269Z,97522.16
2023-03-11T05:38:13.499Z,97527.59
2023-03-11T05:38:45.215Z,97526.34
2023-03-11T05:39:17.027Z,97520.94
2023-03-11T05:39:48.913Z,97515.56
2023-03-11T05:40:21.514Z,97513.22
2023-03-11T05:40:53.802Z,97517.88
2023-03-11T05:41:25.546Z,97507.31
2023-03-11T05:41:57.281Z,97519.81
2023-03-11T05:42:29.063Z,97503.34
2023-03-11T05:43:00.807Z,97514.31
2023-03-11T05:43:32.559Z,97522.00
2023-03-11T05:44:04.724Z,97502.81
2023-03-11T05:44:36.652Z,97515.75
2023-03-11T05:45:09.635Z,97515.59
2023-03-11T05:45:41.413Z,97509.53
2023-03-11T05:46:13.249Z,97511.56
2023-03-11T05:46:45.085Z,97516.09
2023-03-11T05:47:18.227Z,97523.06
2023-03-11T05:47:51.888Z,97509.22
2023-03-11T05:48:23.709Z,97517.50
2023-03-11T05:48:55.494Z,97534.13
2023-03-11T05:49:28.083Z,97532.47
2023-03-11T05:49:59.816Z,97535.09
2023-03-11T05:50:31.894Z,97531.63
2023-03-11T05:51:11.901Z,97537.97
2023-03-11T05:51:43.747Z,97521.81
2023-03-11T05:52:15.963Z,97535.00
2023-03-11T05:52:47.829Z,97535.22
2023-03-11T05:53:19.654Z,97533.09
2023-03-11T05:53:51.475Z,97527.19
2023-03-11T05:54:23.220Z,97537.31
2023-03-11T05:54:54.916Z,97531.50
2023-03-11T05:55:26.637Z,97537.00
2023-03-11T05:55:59.833Z,97537.00
2023-03-11T05:56:31.723Z,97532.66
2023-03-11T05:57:03.743Z,97547.97
2023-03-11T05:57:35.801Z,97551.47
2023-03-11T05:58:07.535Z,97535.19
2023-03-11T05:58:39.298Z,97540.25
2023-03-11T05:59:15.801Z,97545.53
2023-03-11T05:59:48.118Z,97548.25
2023-03-11T06:00:20.629Z,97556.06
2023-03-11T06:00:52.396Z,97552.50
2023-03-11T06:01:24.114Z,97553.63
2023-03-11T06:01:55.922Z,97549.31
2023-03-11T06:02:27.699Z,97558.38
2023-03-11T06:02:59.480Z,97560.28
2023-03-11T06:03:31.268Z,97568.47
2023-03-11T06:04:03.395Z,97565.94
2023-03-11T06:04:37.062Z,97578.91
2023-03-11T06:05:11.642Z,97569.84
2023-03-11T06:05:49.635Z,97577.22
2023-03-11T06:06:21.379Z,97572.13
2023-03-11T06:06:53.789Z,97572.25
2023-03-11T06:07:25.549Z,97573.84
2023-03-11T06:07:57.440Z,97584.50
2023-03-11T06:08:30.856Z,97576.59
2023-03-11T06:09:04.240Z,97584.59
2023-03-11T06:09:37.117Z,97589.94
2023-03-11T06:10:09.735Z,97584.78
2023-03-11T06:10:42.183Z,97587.44
2023-03-11T06:11:14.425Z,97585.72
2023-03-11T06:11:46.410Z,97591.63
2023-03-11T06:12:18.854Z,97587.00
2023-03-11T06:12:50.572Z,97593.94
2023-03-11T06:13:22.448Z,97586.63
2023-03-11T06:13:55.983Z,97590.28
2023-03-11T06:14:31.688Z,97584.28
2023-03-11T06:15:03.586Z,97588.72
2023-03-11T06:15:37.037Z,97574.34
2023-03-11T06:16:09.561Z,97586.97
2023-03-11T06:16:42.089Z,97585.38
2023-03-11T06:17:14.144Z,97575.66
2023-03-11T06:17:45.987Z,97578.28
2023-03-11T06:18:17.812Z,97588.69
2023-03-11T06:18:49.592Z,97584.69
2023-03-11T06:19:21.698Z,97590.16
2023-03-11T06:19:53.406Z,97586.22
2023-03-11T06:20:25.619Z,97588.84
2023-03-11T06:21:02.340Z,97585.09
2023-03-11T06:21:34.074Z,97586.03
2023-03-11T06:22:05.811Z,97572.53
2023-03-11T06:22:40.105Z,97588.13
2023-03-11T06:23:12.122Z,97584.63
2023-03-11T06:23:44.179Z,97588.31
2023-03-11T06:24:15.914Z,97598.06
2023-03-11T06:24:47.791Z,97589.63
2023-03-11T06:25:20.161Z,97593.47
2023-03-11T06:25:59.657Z,97598.28
2023-03-11T06:26:31.470Z,97604.19
2023-03-11T06:27:03.364Z,97598.00
2023-03-11T06:27:35.296Z,97601.84